Time;durP1;ratioP1;P1;durP2;ratioP2;P2;SDS_P1;SDS_P2;PMS_P1;PMS_P2;Temp;Humidity;BMP_temperature;BMP_pressure;BME280_temperature;BME280_humidity;BME280_pressure;Samples;Min_cycle;Max_cycle;Signal;HPM_P1;HPM_P2
2023/03/15 00:01:32;;;;;;;;;;;;;;;20.31;47.08;100201.03;4958223;28;4153;-63
2023/03/15 00:03:58;;;;;;;;;;;;;;;20.31;47.19;100203.91;4958922;28;4086;-62
2023/03/15 00:06:24;;;;;;;;;;;;;;;20.30;47.11;100211.06;4956205;28;4257;-62
2023/03/15 00:08:51;;;;;;;;;;;;;;;20.28;47.04;100217.47;4959284;28;4175;-62
2023/03/15 00:11:17;;;;;;;;;;;;;;;20.29;47.15;100221.09;4956119;28;4055;-62
2023/03/15 00:13:44;;;;;;;;;;;;;;;20.29;47.00;100227.59;4961442;28;4206;-63
2023/03/15 00:16:10;;;;;;;;;;;;;;;20.30;46.94;100234.81;4958909;28;3959;-61
2023/03/15 00:18:37;;;;;;;;;;;;;;;20.30;47.08;100239.81;4958439;28;4247;-61
2023/03/15 00:21:03;;;;;;;;;;;;;;;20.29;47.06;100241.22;4956896;28;6286;-61
2023/03/15 00:23:30;;;;;;;;;;;;;;;20.30;46.96;100251.31;4956022;28;4233;-61
2023/03/15 00:25:56;;;;;;;;;;;;;;;20.34;46.85;100259.34;4956172;28;4165;-61
2023/03/15 00:28:23;;;;;;;;;;;;;;;20.32;47.04;100262.91;4959290;28;4140;-61
2023/03/15 00:30:58;;;;;;;;;;;;;;;20.31;47.13;100264.28;4956862;28;4332;-61
2023/03/15 00:33:24;;;;;;;;;;;;;;;20.30;47.11;100265.69;4945014;28;4140;-61
2023/03/15 00:35:52;;;;;;;;;;;;;;;20.30;47.00;100274.31;4953682;28;4164;-62
2023/03/15 00:38:20;;;;;;;;;;;;;;;20.29;47.03;100278.59;4953393;28;4160;-62
2023/03/15 00:40:47;;;;;;;;;;;;;;;20.28;47.11;100282.88;4946514;28;4464;-62
2023/03/15 00:43:16;;;;;;;;;;;;;;;20.28;47.10;100282.88;4952287;28;4065;-62
2023/03/15 00:45:44;;;;;;;;;;;;;;;20.27;47.14;100287.13;4953795;28;4353;-62
2023/03/15 00:48:10;;;;;;;;;;;;;;;20.26;47.12;100285.66;4955062;28;4358;-62
2023/03/15 00:50:36;;;;;;;;;;;;;;;20.25;47.01;100284.19;4950026;28;5572;-62
2023/03/15 00:53:03;;;;;;;;;;;;;;;20.25;47.09;100289.94;4948975;28;5182;-62
2023/03/15 00:55:29;;;;;;;;;;;;;;;20.26;46.92;100291.41;4954949;28;4059;-62
2023/03/15 00:57:55;;;;;;;;;;;;;;;20.26;46.97;100292.16;4951233;28;4146;-62
2023/03/15 01:00:23;;;;;;;;;;;;;;;20.27;47.00;100298.63;4941125;28;4148;-62
2023/03/15 01:02:50;;;;;;;;;;;;;;;20.28;46.96;100297.25;4954090;28;5344;-62
2023/03/15 01:05:17;;;;;;;;;;;;;;;20.27;47.10;100305.13;4956847;28;4172;-62
2023/03/15 01:07:46;;;;;;;;;;;;;;;20.27;47.18;100310.88;4955948;28;5194;-62
2023/03/15 01:10:13;;;;;;;;;;;;;;;20.27;47.11;100313.75;4957627;28;4349;-62
2023/03/15 01:12:39;;;;;;;;;;;;;;;20.26;47.15;100320.91;4956989;28;5176;-62
2023/03/15 01:15:06;;;;;;;;;;;;;;;20.25;47.11;100318.69;4957390;28;4132;-62
2023/03/15 01:17:32;;;;;;;;;;;;;;;20.25;47.08;100312.94;4941198;28;4205;-62
2023/03/15 01:20:00;;;;;;;;;;;;;;;20.25;47.20;100315.81;4939354;28;4242;-61
2023/03/15 01:22:26;;;;;;;;;;;;;;;20.24;47.08;100323.69;4953307;28;4213;-62
2023/03/15 01:24:53;;;;;;;;;;;;;;;20.24;47.16;100334.47;4954032;28;4199;-62
2023/03/15 01:27:19;;;;;;;;;;;;;;;20.24;47.10;100334.47;4953079;28;3974;-61
2023/03/15 01:29:45;;;;;;;;;;;;;;;20.24;47.06;100337.34;4944097;28;4207;-62
2023/03/15 01:32:13;;;;;;;;;;;;;;;20.24;47.08;100334.47;4944172;28;4198;-62
2023/03/15 01:34:42;;;;;;;;;;;;;;;20.25;47.01;100338.81;4938911;28;4106;-63
2023/03/15 01:37:09;;;;;;;;;;;;;;;20.25;47.05;100342.44;4935180;28;4072;-62
2023/03/15 01:39:40;;;;;;;;;;;;;;;20.26;47.13;100343.91;4935382;28;5365;-62
2023/03/15 01:42:06;;;;;;;;;;;;;;;20.27;47.28;100341.75;4946075;28;4254;-62
2023/03/15 01:45:05;;;;;;;;;;;;;;;20.27;47.27;100338.88;4937934;28;4128;-62
2023/03/15 01:47:31;;;;;;;;;;;;;;;20.27;47.11;100350.38;4916559;28;4161;-62
2023/03/15 01:50:02;;;;;;;;;;;;;;;20.25;47.05;100348.19;4941741;28;4315;-62
2023/03/15 01:52:30;;;;;;;;;;;;;;;20.28;47.11;100341.09;4945346;28;4208;-62
2023/03/15 01:55:00;;;;;;;;;;;;;;;20.28;47.12;100343.97;4945352;28;4195;-62
2023/03/15 01:57:29;;;;;;;;;;;;;;;20.27;47.13;100350.38;4944298;28;5229;-62
2023/03/15 02:00:18;;;;;;;;;;;;;;;20.26;47.02;100354.66;4942921;28;5433;-62
2023/03/15 02:02:52;;;;;;;;;;;;;;;20.26;46.97;100360.41;4945387;28;5039;-62
2023/03/15 02:05:24;;;;;;;;;;;;;;;20.24;47.16;100357.47;4945829;28;4204;-62
2023/03/15 02:07:53;;;;;;;;;;;;;;;20.25;46.99;100359.69;4942568;28;4295;-62
2023/03/15 02:10:29;;;;;;;;;;;;;;;20.25;46.92;100353.94;4945502;28;4101;-62
2023/03/15 02:12:57;;;;;;;;;;;;;;;20.27;46.98;100353.25;4953940;28;5444;-62
2023/03/15 02:15:23;;;;;;;;;;;;;;;20.26;47.12;100361.16;4955182;28;4026;-62
2023/03/15 02:17:50;;;;;;;;;;;;;;;20.27;46.95;100361.88;4940468;28;5644;-62
2023/03/15 02:20:34;;;;;;;;;;;;;;;20.29;47.06;100373.47;4940127;28;4295;-62
2023/03/15 02:23:10;;;;;;;;;;;;;;;20.27;47.08;100373.38;4945183;28;4335;-61
2023/03/15 02:25:46;;;;;;;;;;;;;;;20.27;47.09;100367.63;4952656;28;4083;-61
2023/03/15 02:28:12;;;;;;;;;;;;;;;20.27;47.15;100367.63;4939445;28;4236;-61
2023/03/15 02:30:40;;;;;;;;;;;;;;;20.26;47.14;100377.66;4917803;28;4228;-62
2023/03/15 02:33:09;;;;;;;;;;;;;;;20.26;47.03;100383.41;4945535;28;4018;-61
2023/03/15 02:40:00;;;;;;;;;;;;;;;20.24;47.03;100386.22;4953384;28;4184;-61
2023/03/15 02:42:27;;;;;;;;;;;;;;;20.23;47.00;100390.50;4945836;28;5169;-63
2023/03/15 02:44:55;;;;;;;;;;;;;;;20.21;46.92;100399.03;4932355;28;4530;-63
2023/03/15 02:47:23;;;;;;;;;;;;;;;20.23;46.89;100399.13;4960574;28;4145;-63
2023/03/15 02:49:50;;;;;;;;;;;;;;;20.22;46.89;100394.75;4928207;28;4265;-64
2023/03/15 02:52:16;;;;;;;;;;;;;;;20.24;46.92;100404.19;4959077;28;4150;-63
2023/03/15 02:54:43;;;;;;;;;;;;;;;20.24;46.88;100403.47;4958977;28;5504;-63
2023/03/15 02:57:10;;;;;;;;;;;;;;;20.24;47.04;100409.94;4942235;28;4119;-63
2023/03/15 02:59:36;;;;;;;;;;;;;;;20.25;46.95;100417.19;4950259;28;4241;-61
2023/03/15 03:02:02;;;;;;;;;;;;;;;20.26;46.94;100412.16;4959287;28;4417;-64
2023/03/15 03:04:29;;;;;;;;;;;;;;;20.24;47.07;100409.22;4956243;28;5304;-64
2023/03/15 03:06:55;;;;;;;;;;;;;;;20.23;46.97;100419.25;4949562;28;4231;-61
2023/03/15 03:09:27;;;;;;;;;;;;;;;20.22;47.04;100424.22;4963897;28;4255;-64
2023/03/15 03:11:54;;;;;;;;;;;;;;;20.21;46.99;100428.50;4959428;28;4107;-63
2023/03/15 03:14:23;;;;;;;;;;;;;;;20.22;46.83;100429.25;4956849;28;5453;-63
2023/03/15 03:16:50;;;;;;;;;;;;;;;20.21;46.89;100433.53;4966004;28;4129;-63
2023/03/15 03:19:17;;;;;;;;;;;;;;;20.21;46.87;100439.28;4949962;28;4265;-63
2023/03/15 03:21:43;;;;;;;;;;;;;;;20.21;46.96;100436.41;4959073;28;4057;-65
2023/03/15 03:24:10;;;;;;;;;;;;;;;20.21;46.89;100436.41;4948473;28;6369;-63
2023/03/15 03:26:37;;;;;;;;;;;;;;;20.22;46.91;100446.50;4962011;28;4214;-63
2023/03/15 03:29:06;;;;;;;;;;;;;;;20.24;46.95;100435.09;4959570;28;4141;-63
2023/03/15 03:31:33;;;;;;;;;;;;;;;20.24;46.97;100449.47;4949228;28;4183;-63
2023/03/15 03:34:00;;;;;;;;;;;;;;;20.24;47.09;100446.59;4949081;28;4310;-63
2023/03/15 03:36:28;;;;;;;;;;;;;;;20.24;47.24;100453.06;4944328;28;4127;-63
2023/03/15 03:38:55;;;;;;;;;;;;;;;20.22;46.92;100455.84;4962320;28;4194;-63
2023/03/15 03:41:22;;;;;;;;;;;;;;;20.22;47.06;100455.13;4966062;28;4267;-63
2023/03/15 03:43:49;;;;;;;;;;;;;;;20.22;47.07;100460.88;4959677;28;4221;-63
2023/03/15 03:46:16;;;;;;;;;;;;;;;20.23;46.78;100465.97;4943585;28;4184;-63
2023/03/15 03:48:47;;;;;;;;;;;;;;;20.24;46.95;100470.31;4963835;28;4188;-63
2023/03/15 03:51:13;;;;;;;;;;;;;;;20.24;47.00;100466.72;4960022;28;4088;-63
2023/03/15 03:53:40;;;;;;;;;;;;;;;20.23;46.94;100477.47;4960182;28;4128;-63
2023/03/15 03:56:06;;;;;;;;;;;;;;;20.25;46.97;100482.56;4949136;28;4176;-63
2023/03/15 03:58:34;;;;;;;;;;;;;;;20.26;47.01;100487.66;4965047;28;4142;-63
2023/03/15 04:01:14;;;;;;;;;;;;;;;20.27;46.97;100488.38;4964447;28;5309;-63
2023/03/15 04:03:43;;;;;;;;;;;;;;;20.27;47.03;100489.16;4946683;28;4116;-63
2023/03/15 04:06:12;;;;;;;;;;;;;;;20.27;47.06;100499.88;4944146;28;4122;-63
2023/03/15 04:08:42;;;;;;;;;;;;;;;20.29;46.94;100499.97;4947908;28;4167;-63
2023/03/15 04:11:16;;;;;;;;;;;;;;;20.29;46.87;100502.84;4948556;28;4223;-63
2023/03/15 04:13:48;;;;;;;;;;;;;;;20.29;47.13;100502.84;4947690;28;5238;-63
2023/03/15 04:16:14;;;;;;;;;;;;;;;20.29;47.11;100502.84;4960635;28;4177;-63
2023/03/15 04:18:55;;;;;;;;;;;;;;;20.27;46.80;100505.63;4940634;28;4182;-63
2023/03/15 04:21:21;;;;;;;;;;;;;;;20.27;47.01;100511.38;4961985;28;4146;-63
2023/03/15 04:23:51;;;;;;;;;;;;;;;20.27;46.92;100508.50;4963359;28;5341;-63
2023/03/15 04:26:35;;;;;;;;;;;;;;;20.27;46.89;100517.13;4964498;28;4076;-63
2023/03/15 04:29:24;;;;;;;;;;;;;;;20.25;46.85;100526.44;4958741;28;4182;-63
2023/03/15 04:32:05;;;;;;;;;;;;;;;20.26;46.81;100521.41;4959237;28;5211;-63
2023/03/15 04:34:44;;;;;;;;;;;;;;;20.25;46.94;100526.44;4945396;28;4140;-63
2023/03/15 04:37:31;;;;;;;;;;;;;;;20.25;46.85;100525.69;4955839;28;4105;-63
2023/03/15 04:40:07;;;;;;;;;;;;;;;20.27;46.88;100520.00;4962773;28;5223;-62
2023/03/15 04:42:44;;;;;;;;;;;;;;;20.26;46.89;100527.16;4950012;28;5579;-63
2023/03/15 04:45:23;;;;;;;;;;;;;;;20.25;46.79;100528.59;4942897;28;4071;-62
2023/03/15 04:48:03;;;;;;;;;;;;;;;20.23;46.82;100531.38;4957652;28;5317;-62
2023/03/15 04:50:56;;;;;;;;;;;;;;;20.23;46.76;100540.00;4958217;28;3992;-62
2023/03/15 04:53:40;;;;;;;;;;;;;;;20.22;46.75;100544.25;4958988;28;4235;-62
2023/03/15 04:56:26;;;;;;;;;;;;;;;20.23;46.80;100548.63;4963077;28;4220;-62
2023/03/15 04:59:06;;;;;;;;;;;;;;;20.24;46.71;100558.72;4941393;28;4503;-62
2023/03/15 05:01:48;;;;;;;;;;;;;;;20.25;46.65;100560.22;4964014;28;4926;-62
2023/03/15 05:04:27;;;;;;;;;;;;;;;20.26;46.58;100573.91;4962588;28;4263;-62
2023/03/15 05:07:08;;;;;;;;;;;;;;;20.26;46.79;100570.28;4957061;28;5417;-62
2023/03/15 05:09:54;;;;;;;;;;;;;;;20.26;47.02;100578.94;4957096;28;5233;-62
2023/03/15 05:12:59;;;;;;;;;;;;;;;20.27;46.83;100589.03;4938716;28;4276;-62
2023/03/15 05:15:36;;;;;;;;;;;;;;;20.27;46.79;100583.25;4947330;28;4063;-62
2023/03/15 05:18:13;;;;;;;;;;;;;;;20.27;46.67;100581.16;4947031;28;4176;-62
2023/03/15 05:21:04;;;;;;;;;;;;;;;20.27;46.80;100591.91;4924211;28;4176;-61
2023/03/15 05:24:00;;;;;;;;;;;;;;;20.29;46.82;100594.84;4877894;28;5282;-62
2023/03/15 05:26:45;;;;;;;;;;;;;;;20.27;46.81;100597.66;4957149;28;4172;-62
2023/03/15 05:29:33;;;;;;;;;;;;;;;20.26;46.72;100602.66;4941700;28;4201;-62
2023/03/15 05:32:16;;;;;;;;;;;;;;;20.25;46.72;100603.34;4941056;28;4271;-62
2023/03/15 05:35:03;;;;;;;;;;;;;;;20.25;46.63;100609.09;4958488;28;4627;-62
2023/03/15 05:37:41;;;;;;;;;;;;;;;20.26;46.61;100610.56;4947488;28;4030;-62
2023/03/15 05:40:22;;;;;;;;;;;;;;;20.25;46.78;100611.97;4951932;28;5442;-62
2023/03/15 05:43:07;;;;;;;;;;;;;;;20.26;46.45;100616.31;4957943;28;4246;-62
2023/03/15 05:45:47;;;;;;;;;;;;;;;20.27;46.87;100629.28;4940431;28;4222;-62
2023/03/15 05:48:26;;;;;;;;;;;;;;;20.27;46.75;100626.41;4945506;28;4108;-62
2023/03/15 05:50:56;;;;;;;;;;;;;;;20.35;46.60;100638.25;4954188;28;4228;-61
2023/03/15 05:53:55;;;;;;;;;;;;;;;20.33;46.54;100646.78;4940885;28;4200;-63
2023/03/15 05:56:35;;;;;;;;;;;;;;;19.90;45.42;100653.53;4950807;28;4282;-62
2023/03/15 05:59:13;;;;;;;;;;;;;;;19.99;44.15;100663.28;4950688;28;4002;-62
2023/03/15 06:01:58;;;;;;;;;;;;;;;20.10;44.66;100659.47;4957660;28;5445;-62
2023/03/15 06:04:32;;;;;;;;;;;;;;;20.18;44.62;100661.94;4945787;28;5483;-61
2023/03/15 06:06:59;;;;;;;;;;;;;;;20.20;44.79;100674.28;4939475;28;4778;-62
2023/03/15 06:09:26;;;;;;;;;;;;;;;20.23;45.56;100678.00;4941481;28;4945;-62
2023/03/15 06:11:53;;;;;;;;;;;;;;;20.27;45.87;100672.41;4956780;28;4344;-62
2023/03/15 06:14:20;;;;;;;;;;;;;;;20.28;45.90;100679.66;4945129;28;4164;-61
2023/03/15 06:16:49;;;;;;;;;;;;;;;20.30;46.09;100683.34;4945168;28;4138;-60
2023/03/15 06:19:16;;;;;;;;;;;;;;;20.34;45.98;100682.03;4942484;28;4143;-59
2023/03/15 06:21:43;;;;;;;;;;;;;;;20.43;45.61;100696.13;4938118;28;5299;-60
2023/03/15 06:24:17;;;;;;;;;;;;;;;16.87;43.57;100689.63;4953592;28;4100;-59
2023/03/15 06:26:44;;;;;;;;;;;;;;;15.90;44.39;100703.88;4942593;28;4281;-61
2023/03/15 06:29:10;;;;;;;;;;;;;;;15.58;43.40;100708.28;4938711;28;4020;-64
2023/03/15 06:31:37;;;;;;;;;;;;;;;17.22;43.26;100706.63;4943375;28;4051;-64
2023/03/15 06:34:07;;;;;;;;;;;;;;;18.00;42.88;100708.06;4938069;28;4074;-65
2023/03/15 06:36:35;;;;;;;;;;;;;;;17.85;44.91;100705.81;4941522;28;4135;-64
2023/03/15 06:39:02;;;;;;;;;;;;;;;17.67;43.84;100714.13;4937949;28;3974;-66
2023/03/15 06:41:28;;;;;;;;;;;;;;;17.62;41.77;100709.56;4936909;28;4147;-66
2023/03/15 06:44:02;;;;;;;;;;;;;;;17.53;43.74;100723.41;4944218;28;4166;-66
2023/03/15 06:46:28;;;;;;;;;;;;;;;17.42;40.38;100729.94;4940556;28;4068;-66
2023/03/15 06:48:55;;;;;;;;;;;;;;;17.30;39.28;100727.13;4937753;28;4136;-66
2023/03/15 06:51:21;;;;;;;;;;;;;;;17.28;38.29;100726.28;4962808;28;4121;-69
2023/03/15 06:53:48;;;;;;;;;;;;;;;17.99;37.92;100733.09;4956472;28;4039;-68
2023/03/15 06:56:14;;;;;;;;;;;;;;;18.53;39.35;100736.66;4939477;28;4052;-68
2023/03/15 06:58:41;;;;;;;;;;;;;;;18.88;39.39;100729.84;4956615;28;4578;-66
2023/03/15 07:01:07;;;;;;;;;;;;;;;18.98;39.59;100738.94;4954497;28;3973;-65
2023/03/15 07:03:33;;;;;;;;;;;;;;;19.08;40.32;100738.72;4950567;28;4195;-65
2023/03/15 07:06:00;;;;;;;;;;;;;;;19.21;40.39;100749.41;4951233;28;4054;-73
2023/03/15 07:08:26;;;;;;;;;;;;;;;19.33;40.35;100754.25;4945946;28;4208;-73
2023/03/15 07:10:52;;;;;;;;;;;;;;;19.36;40.66;100747.25;4955483;28;5167;-73
2023/03/15 07:13:19;;;;;;;;;;;;;;;19.45;41.00;100760.59;4955831;28;4028;-74
2023/03/15 07:15:46;;;;;;;;;;;;;;;19.48;41.39;100764.31;4954874;28;4204;-74
2023/03/15 07:18:13;;;;;;;;;;;;;;;19.51;41.60;100763.75;4938114;28;4455;-73
2023/03/15 07:20:39;;;;;;;;;;;;;;;19.55;41.84;100755.34;4958598;28;4066;-73
2023/03/15 07:23:05;;;;;;;;;;;;;;;19.58;42.06;100761.91;4956437;28;4099;-74
2023/03/15 07:25:32;;;;;;;;;;;;;;;19.59;41.96;100758.41;4955204;28;4306;-74
2023/03/15 07:28:07;;;;;;;;;;;;;;;19.64;42.25;100765.81;4956658;28;4167;-75
2023/03/15 07:30:33;;;;;;;;;;;;;;;19.66;42.29;100768.81;4960104;28;4331;-74
2023/03/15 07:33:00;;;;;;;;;;;;;;;19.69;42.50;100772.53;4959245;28;5184;-74
2023/03/15 07:35:26;;;;;;;;;;;;;;;19.72;42.66;100761.88;4957531;28;3979;-74
2023/03/15 07:37:53;;;;;;;;;;;;;;;19.72;42.79;100773.38;4957237;28;4274;-73
2023/03/15 07:40:19;;;;;;;;;;;;;;;19.75;42.97;100775.72;4956246;28;3981;-74
2023/03/15 07:42:45;;;;;;;;;;;;;;;19.76;43.13;100779.31;4956029;28;4175;-73
2023/03/15 07:45:12;;;;;;;;;;;;;;;19.79;43.29;100783.75;4949180;28;4321;-70
2023/03/15 07:47:38;;;;;;;;;;;;;;;19.80;43.33;100788.13;4957090;28;4151;-68
2023/03/15 07:50:05;;;;;;;;;;;;;;;19.81;43.78;100789.59;4955895;28;4048;-71
2023/03/15 07:52:31;;;;;;;;;;;;;;;19.89;43.86;100787.13;4954487;28;4184;-68
2023/03/15 07:54:57;;;;;;;;;;;;;;;19.91;43.97;100792.97;4958730;28;4198;-66
2023/03/15 07:57:24;;;;;;;;;;;;;;;19.91;44.01;100787.22;4959608;28;4925;-70
2023/03/15 07:59:53;;;;;;;;;;;;;;;19.84;44.25;100799.81;4957203;28;4068;-69
2023/03/15 08:02:20;;;;;;;;;;;;;;;19.86;44.17;100797.06;4957482;28;3931;-73
2023/03/15 08:04:49;;;;;;;;;;;;;;;19.89;44.32;100804.38;4956361;28;4039;-73
2023/03/15 08:07:16;;;;;;;;;;;;;;;19.90;44.22;100791.47;4961391;28;4108;-73
2023/03/15 08:09:42;;;;;;;;;;;;;;;19.90;44.47;100797.22;4957087;28;4073;-73
2023/03/15 08:12:09;;;;;;;;;;;;;;;19.90;44.54;100808.72;4960568;28;4031;-75
2023/03/15 08:14:36;;;;;;;;;;;;;;;19.91;44.41;100813.09;4955844;28;4056;-74
2023/03/15 08:17:02;;;;;;;;;;;;;;;19.99;44.37;100812.72;4958287;28;4254;-73
2023/03/15 08:19:28;;;;;;;;;;;;;;;19.94;44.29;100813.94;4952413;28;4261;-73
2023/03/15 08:21:55;;;;;;;;;;;;;;;19.92;44.38;100823.19;4955735;28;4169;-73
2023/03/15 08:24:21;;;;;;;;;;;;;;;19.91;44.53;100827.47;4959146;28;4078;-73
2023/03/15 08:26:47;;;;;;;;;;;;;;;19.97;44.44;100821.97;4955018;28;4161;-73
2023/03/15 08:29:14;;;;;;;;;;;;;;;19.97;44.43;100836.34;4955673;28;5228;-74
2023/03/15 08:31:40;;;;;;;;;;;;;;;20.00;44.58;100835.09;4954252;28;4129;-74
2023/03/15 08:34:07;;;;;;;;;;;;;;;20.01;44.63;100835.81;4954647;28;4124;-73
2023/03/15 08:36:34;;;;;;;;;;;;;;;19.99;44.70;100845.06;4961669;28;4166;-74
2023/03/15 08:39:00;;;;;;;;;;;;;;;20.04;44.69;100848.88;4955917;28;4065;-72
2023/03/15 08:41:26;;;;;;;;;;;;;;;20.06;44.61;100852.59;4954480;28;4154;-72
2023/03/15 08:43:53;;;;;;;;;;;;;;;20.06;44.66;100860.47;4951426;28;3941;-73
2023/03/15 08:46:20;;;;;;;;;;;;;;;20.07;44.66;100862.72;4958219;28;4004;-73
2023/03/15 08:48:47;;;;;;;;;;;;;;;20.12;44.54;100871.53;4959978;28;4260;-73
2023/03/15 08:51:13;;;;;;;;;;;;;;;20.12;44.64;100863.66;4955703;28;4122;-73
2023/03/15 08:53:40;;;;;;;;;;;;;;;20.13;44.68;100873.00;4955223;28;4134;-73
2023/03/15 08:56:06;;;;;;;;;;;;;;;20.13;44.81;100882.38;4954569;28;4210;-73
2023/03/15 08:58:33;;;;;;;;;;;;;;;20.15;44.82;100876.72;4956027;28;5282;-73
2023/03/15 09:00:59;;;;;;;;;;;;;;;20.15;44.86;100882.47;4955774;28;5122;-73
2023/03/15 09:03:26;;;;;;;;;;;;;;;20.16;44.90;100881.09;4958276;28;4149;-73
2023/03/15 09:05:56;;;;;;;;;;;;;;;20.15;44.98;100884.63;4958704;28;3952;-72
2023/03/15 09:08:24;;;;;;;;;;;;;;;20.18;44.96;100880.44;4956199;28;4206;-72
2023/03/15 09:10:54;;;;;;;;;;;;;;;20.18;44.87;100889.06;4954398;28;4042;-72
2023/03/15 09:13:20;;;;;;;;;;;;;;;20.18;44.89;100900.56;4960061;28;4047;-71
2023/03/15 09:15:50;;;;;;;;;;;;;;;20.17;45.06;100893.34;4957273;28;3993;-73
2023/03/15 09:18:17;;;;;;;;;;;;;;;20.20;45.08;100897.78;4959235;28;4261;-72
2023/03/15 09:20:43;;;;;;;;;;;;;;;20.20;45.14;100904.31;4958778;28;4102;-73
2023/03/15 09:23:09;;;;;;;;;;;;;;;20.21;44.98;100905.78;4958995;28;4690;-72
2023/03/15 09:25:36;;;;;;;;;;;;;;;20.23;45.06;100913.75;4957025;28;4355;-73
2023/03/15 09:28:05;;;;;;;;;;;;;;;20.22;45.08;100918.00;4959767;28;4032;-74
2023/03/15 09:30:32;;;;;;;;;;;;;;;20.24;45.13;100927.47;4946753;28;3985;-73
2023/03/15 09:32:59;;;;;;;;;;;;;;;20.23;44.90;100931.75;4960127;28;4036;-74
2023/03/15 09:35:26;;;;;;;;;;;;;;;20.24;45.08;100926.75;4957725;28;4024;-74
2023/03/15 09:37:52;;;;;;;;;;;;;;;20.24;44.89;100935.38;4956948;28;4305;-73
2023/03/15 09:40:25;;;;;;;;;;;;;;;20.25;45.01;100939.75;4956824;28;4201;-73
2023/03/15 09:42:54;;;;;;;;;;;;;;;20.25;45.00;100946.22;4958070;28;5228;-73
2023/03/15 09:45:29;;;;;;;;;;;;;;;20.24;44.95;100938.25;4957320;28;4074;-73
2023/03/15 09:48:15;;;;;;;;;;;;;;;20.27;44.91;100945.56;4958227;28;4107;-73
2023/03/15 09:50:49;;;;;;;;;;;;;;;20.26;45.18;100946.97;4941328;28;4143;-73
2023/03/15 09:53:17;;;;;;;;;;;;;;;20.30;45.14;100947.16;4959335;28;4047;-75
2023/03/15 09:55:44;;;;;;;;;;;;;;;20.31;45.14;100951.53;4945041;28;4054;-75
2023/03/15 09:58:12;;;;;;;;;;;;;;;20.33;45.12;100956.63;4952573;28;4077;-74
2023/03/15 10:00:41;;;;;;;;;;;;;;;20.34;44.83;100953.13;4955938;28;4196;-76
2023/03/15 10:03:12;;;;;;;;;;;;;;;20.34;45.07;100963.84;4956955;28;4022;-72
2023/03/15 10:05:40;;;;;;;;;;;;;;;20.35;45.02;100957.47;4938103;28;4153;-75
2023/03/15 10:08:16;;;;;;;;;;;;;;;20.35;45.03;100966.09;4945612;28;4113;-76
2023/03/15 10:11:03;;;;;;;;;;;;;;;20.36;45.05;100958.94;4952431;28;4027;-72
2023/03/15 10:13:31;;;;;;;;;;;;;;;20.38;45.21;100967.69;4928518;28;4015;-73
2023/03/15 10:16:13;;;;;;;;;;;;;;;20.39;45.34;100969.19;4944950;28;3978;-73
2023/03/15 10:18:41;;;;;;;;;;;;;;;20.36;45.34;100964.69;4945586;28;4029;-73
2023/03/15 10:21:12;;;;;;;;;;;;;;;20.39;45.41;100974.94;4945603;28;4185;-72
2023/03/15 10:23:41;;;;;;;;;;;;;;;20.39;45.66;100972.06;4947134;28;4082;-73
2023/03/15 10:26:08;;;;;;;;;;;;;;;20.39;45.73;100974.94;4942618;28;5242;-72
2023/03/15 10:28:36;;;;;;;;;;;;;;;20.40;45.64;100979.28;4946387;28;4150;-73
2023/03/15 10:31:12;;;;;;;;;;;;;;;20.42;45.74;100976.50;4953758;28;4135;-73
2023/03/15 10:33:54;;;;;;;;;;;;;;;20.42;45.74;100976.50;4952916;28;4151;-71
2023/03/15 10:36:21;;;;;;;;;;;;;;;20.44;45.77;100981.63;4952850;28;4091;-74
2023/03/15 10:38:49;;;;;;;;;;;;;;;20.44;45.77;100976.59;4952272;28;4188;-74
2023/03/15 10:41:28;;;;;;;;;;;;;;;20.44;45.82;100976.59;4957939;28;4084;-71
2023/03/15 10:43:56;;;;;;;;;;;;;;;20.46;45.83;100982.47;4936450;28;4313;-73
2023/03/15 10:46:23;;;;;;;;;;;;;;;20.47;45.94;100977.44;4947247;28;4358;-74
2023/03/15 10:48:55;;;;;;;;;;;;;;;20.46;46.02;100981.72;4939523;28;4081;-73
2023/03/15 10:51:24;;;;;;;;;;;;;;;20.45;46.10;100986.72;4955595;28;4222;-73
2023/03/15 10:53:52;;;;;;;;;;;;;;;20.47;45.97;100983.19;4960891;28;4021;-72
2023/03/15 10:56:29;;;;;;;;;;;;;;;20.45;45.94;100989.59;4949714;28;4190;-73
2023/03/15 10:58:56;;;;;;;;;;;;;;;20.47;45.98;100989.69;4948742;28;5271;-73
2023/03/15 11:01:37;;;;;;;;;;;;;;;20.46;46.12;100982.47;4959792;28;3980;-72
2023/03/15 11:04:12;;;;;;;;;;;;;;;20.46;45.94;100976.72;4957339;28;4175;-71
2023/03/15 11:06:48;;;;;;;;;;;;;;;20.48;45.96;100978.94;4949485;28;4264;-75
2023/03/15 11:09:21;;;;;;;;;;;;;;;20.46;45.92;100976.72;4955207;28;4258;-73
2023/03/15 11:11:54;;;;;;;;;;;;;;;20.46;45.99;100981.72;4958039;28;4317;-74
2023/03/15 11:14:21;;;;;;;;;;;;;;;20.45;45.97;100983.09;4957704;28;4207;-74
2023/03/15 11:16:48;;;;;;;;;;;;;;;20.41;46.11;100992.28;4958627;28;4846;-73
2023/03/15 11:19:15;;;;;;;;;;;;;;;20.40;46.06;100993.66;4954667;28;4057;-72
2023/03/15 11:21:41;;;;;;;;;;;;;;;20.38;46.09;100999.31;4948416;28;5273;-72
2023/03/15 11:24:09;;;;;;;;;;;;;;;20.37;46.17;101003.59;4949962;28;4105;-73
2023/03/15 11:26:36;;;;;;;;;;;;;;;20.36;46.07;100999.22;4951560;28;4312;-73
2023/03/15 11:29:03;;;;;;;;;;;;;;;20.35;46.25;100997.75;4944744;28;3994;-73
2023/03/15 11:31:30;;;;;;;;;;;;;;;20.36;46.10;101002.09;4948511;28;5234;-73
2023/03/15 11:33:56;;;;;;;;;;;;;;;20.38;46.03;101004.31;4955032;28;3995;-73
2023/03/15 11:36:23;;;;;;;;;;;;;;;20.38;46.17;100998.56;4959067;28;4323;-73
2023/03/15 11:38:52;;;;;;;;;;;;;;;20.40;45.95;101008.03;4949365;28;4156;-74
2023/03/15 11:41:20;;;;;;;;;;;;;;;20.41;46.08;101009.53;4962916;28;4164;-74
2023/03/15 11:43:49;;;;;;;;;;;;;;;20.42;46.18;100998.78;4959048;28;4059;-74
2023/03/15 11:46:25;;;;;;;;;;;;;;;20.43;46.09;101003.91;4948982;28;4113;-74
2023/03/15 11:48:52;;;;;;;;;;;;;;;20.45;46.05;101003.97;4957152;28;4186;-73
2023/03/15 11:51:19;;;;;;;;;;;;;;;20.48;46.03;101002.69;4961075;28;4195;-74
2023/03/15 11:53:57;;;;;;;;;;;;;;;20.48;46.04;101002.69;4954545;28;4869;-73
2023/03/15 11:56:27;;;;;;;;;;;;;;;20.47;45.98;100998.31;4958626;28;4150;-73
2023/03/15 11:59:02;;;;;;;;;;;;;;;20.52;46.01;101007.88;4948812;28;4149;-74
2023/03/15 12:01:29;;;;;;;;;;;;;;;20.54;45.90;101005.09;4957548;28;4175;-73
2023/03/15 12:04:15;;;;;;;;;;;;;;;20.55;45.99;101000.09;4959819;28;4065;-73
2023/03/15 12:06:41;;;;;;;;;;;;;;;20.55;45.90;101008.72;4958756;28;4144;-75
2023/03/15 12:09:26;;;;;;;;;;;;;;;20.53;45.82;101005.78;4946201;28;5012;-76
2023/03/15 12:11:55;;;;;;;;;;;;;;;20.55;45.88;101006.59;4954588;28;4146;-77
2023/03/15 12:14:32;;;;;;;;;;;;;;;20.56;46.00;101001.59;4957371;28;4143;-72
2023/03/15 12:17:17;;;;;;;;;;;;;;;20.58;45.72;100998.84;4954624;28;4077;-72
2023/03/15 12:19:43;;;;;;;;;;;;;;;20.57;45.71;100989.47;4955656;28;4100;-72
2023/03/15 12:22:13;;;;;;;;;;;;;;;20.58;45.70;101008.22;4957244;28;4017;-74
2023/03/15 12:24:40;;;;;;;;;;;;;;;20.56;45.89;101008.13;4946919;28;5155;-74
2023/03/15 12:27:16;;;;;;;;;;;;;;;20.58;45.78;100999.56;4945654;28;4001;-74
2023/03/15 12:29:45;;;;;;;;;;;;;;;20.58;45.75;101004.59;4946191;28;4522;-73
2023/03/15 12:32:15;;;;;;;;;;;;;;;20.60;45.84;101007.56;4956935;28;4110;-74
2023/03/15 12:34:41;;;;;;;;;;;;;;;20.59;45.94;101006.06;4960097;28;4207;-74
2023/03/15 12:37:08;;;;;;;;;;;;;;;20.62;45.86;101007.69;4954933;28;4568;-76
2023/03/15 12:39:35;;;;;;;;;;;;;;;20.62;45.86;101010.56;4958641;28;4162;-74
2023/03/15 12:42:02;;;;;;;;;;;;;;;20.63;45.79;101000.53;4957594;28;5267;-74
2023/03/15 12:44:31;;;;;;;;;;;;;;;20.63;45.80;101012.03;4958796;28;4021;-74
2023/03/15 12:47:01;;;;;;;;;;;;;;;20.64;45.85;101007.78;4957233;28;4072;-73
2023/03/15 12:49:29;;;;;;;;;;;;;;;20.65;45.60;101000.63;4956445;28;4201;-74
2023/03/15 12:52:18;;;;;;;;;;;;;;;20.66;45.60;101004.97;4956598;28;4096;-74
2023/03/15 12:54:46;;;;;;;;;;;;;;;20.68;45.64;100999.31;4951231;28;3974;-73
2023/03/15 12:57:18;;;;;;;;;;;;;;;20.66;45.68;100999.97;4944266;28;4034;-72
2023/03/15 12:59:49;;;;;;;;;;;;;;;20.68;45.84;101016.56;4947481;28;4124;-73
2023/03/15 13:02:18;;;;;;;;;;;;;;;20.66;45.66;101002.84;4958787;28;4249;-73
2023/03/15 13:04:48;;;;;;;;;;;;;;;20.67;45.67;101006.47;4948208;28;4160;-73
2023/03/15 13:07:31;;;;;;;;;;;;;;;20.72;45.51;101013.91;4959910;28;3977;-73
2023/03/15 13:10:10;;;;;;;;;;;;;;;20.71;45.59;101013.16;4948502;28;5442;-73